createdAt,value
2022-11-22T00:01:28.431Z,34.72
2022-11-22T00:03:57.111Z,35.65
2022-11-22T00:06:26.531Z,34.15
2022-11-22T00:08:57.026Z,34.25
2022-11-22T00:11:25.243Z,39.10
2022-11-22T00:13:54.814Z,39.05
2022-11-22T00:16:23.845Z,35.40
2022-11-22T00:18:52.580Z,36.95
2022-11-22T00:21:20.960Z,36.95
2022-11-22T00:23:50.843Z,34.97
2022-11-22T00:26:19.334Z,37.80
2022-11-22T00:28:47.885Z,47.10
2022-11-22T00:31:19.777Z,45.00
2022-11-22T00:33:47.789Z,42.88
2022-11-22T00:36:17.478Z,39.78
2022-11-22T00:38:45.786Z,42.40
2022-11-22T00:41:15.441Z,41.35
2022-11-22T00:43:43.882Z,39.08
2022-11-22T00:46:12.487Z,42.05
2022-11-22T00:48:40.887Z,43.35
2022-11-22T00:51:12.208Z,45.22
2022-11-22T00:53:40.997Z,54.20
2022-11-22T00:56:09.168Z,44.47
2022-11-22T00:58:38.777Z,42.35
2022-11-22T01:01:06.853Z,49.30
2022-11-22T01:03:35.846Z,43.42
2022-11-22T01:06:05.296Z,46.95
2022-11-22T01:08:33.615Z,44.60
2022-11-22T01:11:03.369Z,43.13
2022-11-22T01:13:31.675Z,47.90
2022-11-22T01:16:02.444Z,39.17
2022-11-22T01:18:30.621Z,47.90
2022-11-22T01:20:58.911Z,46.80
2022-11-22T01:23:30.797Z,54.35
2022-11-22T01:25:59.451Z,43.42
2022-11-22T01:28:29.022Z,46.65
2022-11-22T01:30:58.268Z,45.40
2022-11-22T01:33:27.597Z,47.72
2022-11-22T01:35:56.803Z,46.00
2022-11-22T01:38:26.405Z,52.05
2022-11-22T01:40:55.927Z,48.25
2022-11-22T01:43:26.214Z,52.08
2022-11-22T01:45:56.893Z,52.40
2022-11-22T01:48:39.823Z,51.67
2022-11-22T01:53:37.829Z,53.10
2022-11-22T01:56:07.525Z,51.20
2022-11-22T01:58:37.344Z,51.08
2022-11-22T02:01:06.814Z,53.83
2022-11-22T02:03:37.971Z,47.55
2022-11-22T02:06:06.633Z,46.13
2022-11-22T02:08:39.033Z,54.50
2022-11-22T02:11:08.348Z,54.78
2022-11-22T02:13:40.560Z,54.00
2022-11-22T02:16:10.983Z,53.58
2022-11-22T02:18:40.931Z,49.65
2022-11-22T02:21:09.741Z,54.38
2022-11-22T02:23:46.742Z,51.38
2022-11-22T02:26:16.178Z,48.58
2022-11-22T02:28:44.223Z,50.72
2022-11-22T02:31:38.715Z,53.70
2022-11-22T02:34:07.771Z,52.42
2022-11-22T02:36:41.098Z,47.42
2022-11-22T02:39:09.990Z,55.30
2022-11-22T02:41:39.848Z,46.58
2022-11-22T02:44:08.803Z,47.55
2022-11-22T02:46:37.836Z,48.78
2022-11-22T02:49:06.294Z,52.97
2022-11-22T02:51:34.278Z,54.00
2022-11-22T02:54:02.299Z,58.47
2022-11-22T02:56:30.221Z,56.88
2022-11-22T02:58:59.729Z,57.90
2022-11-22T03:01:28.030Z,56.08
2022-11-22T03:03:56.169Z,55.92
2022-11-22T03:06:24.437Z,56.60
2022-11-22T03:08:56.612Z,62.88
2022-11-22T03:11:25.269Z,52.10
2022-11-22T03:13:53.309Z,57.50
2022-11-22T03:16:22.663Z,67.93
2022-11-22T03:18:50.788Z,61.60
2022-11-22T03:21:20.247Z,58.65
2022-11-22T03:23:50.690Z,59.38
2022-11-22T03:26:18.626Z,60.55
2022-11-22T03:28:47.152Z,60.47
2022-11-22T03:31:15.125Z,61.85
2022-11-22T03:33:45.705Z,54.55
2022-11-22T03:36:14.021Z,62.90
2022-11-22T03:38:42.012Z,53.17
2022-11-22T03:41:09.962Z,57.70
2022-11-22T03:43:38.998Z,56.53
2022-11-22T03:46:07.023Z,56.53
2022-11-22T03:48:35.014Z,59.70
2022-11-22T03:51:08.047Z,64.35
2022-11-22T03:53:37.536Z,64.28
2022-11-22T03:56:05.974Z,61.45
2022-11-22T03:58:34.503Z,60.97
2022-11-22T04:01:02.813Z,53.25
2022-11-22T04:03:31.355Z,59.65
2022-11-22T04:05:59.426Z,61.03
2022-11-22T04:08:29.083Z,55.38
2022-11-22T04:10:57.053Z,61.75
2022-11-22T04:13:47.236Z,63.67
2022-11-22T04:16:17.079Z,58.00
2022-11-22T04:18:45.073Z,59.80
2022-11-22T04:21:31.159Z,60.30
2022-11-22T04:24:18.842Z,58.17
2022-11-22T04:26:47.301Z,61.50
2022-11-22T04:29:15.720Z,51.55
2022-11-22T04:32:01.614Z,60.60
2022-11-22T04:34:30.194Z,60.47
2022-11-22T04:37:00.699Z,59.20
2022-11-22T04:39:34.670Z,67.45
2022-11-22T04:42:20.684Z,55.83
2022-11-22T04:44:50.319Z,61.42
2022-11-22T04:47:34.333Z,65.18
2022-11-22T04:50:04.547Z,70.82
2022-11-22T04:52:49.858Z,53.10
2022-11-22T04:55:19.128Z,55.63
2022-11-22T04:57:47.311Z,64.90
2022-11-22T05:00:17.022Z,64.40
2022-11-22T05:02:44.986Z,57.03
2022-11-22T05:05:13.098Z,68.18
2022-11-22T05:07:42.380Z,68.78
2022-11-22T05:10:11.965Z,68.85
2022-11-22T05:12:43.679Z,68.13
2022-11-22T05:15:13.880Z,72.78
2022-11-22T05:17:41.926Z,73.95
2022-11-22T05:20:12.144Z,69.18
2022-11-22T05:22:57.581Z,80.38
2022-11-22T05:25:26.099Z,71.63
2022-11-22T05:27:56.128Z,73.68
2022-11-22T05:30:24.232Z,67.78
2022-11-22T05:32:52.751Z,76.55
2022-11-22T05:35:21.024Z,86.15
2022-11-22T05:37:49.545Z,88.93
2022-11-22T05:40:19.082Z,74.90
2022-11-22T05:42:47.155Z,88.78
2022-11-22T05:45:17.174Z,85.05
2022-11-22T05:47:46.576Z,81.72
2022-11-22T05:50:15.242Z,78.22
2022-11-22T05:52:44.303Z,83.00
2022-11-22T05:55:12.478Z,80.82
2022-11-22T05:57:43.500Z,82.85
2022-11-22T06:00:12.377Z,95.75
2022-11-22T06:02:41.958Z,78.72
2022-11-22T06:05:10.235Z,93.47
2022-11-22T06:07:38.608Z,77.22
2022-11-22T06:10:07.272Z,88.85
2022-11-22T06:12:35.780Z,87.13
2022-11-22T06:15:04.222Z,98.32
2022-11-22T06:17:32.937Z,81.97
2022-11-22T06:20:06.097Z,84.05
2022-11-22T06:22:35.096Z,94.15
2022-11-22T06:25:03.438Z,94.65
2022-11-22T06:27:31.737Z,99.63
2022-11-22T06:30:00.642Z,96.25
2022-11-22T06:32:29.359Z,95.05
2022-11-22T06:34:57.465Z,96.88
2022-11-22T06:37:29.237Z,92.63
2022-11-22T06:39:57.170Z,80.80
2022-11-22T06:42:25.375Z,96.65
2022-11-22T06:44:53.402Z,99.55
2022-11-22T06:47:21.635Z,104.38
2022-11-22T06:49:50.712Z,102.45
2022-11-22T06:52:18.888Z,101.20
2022-11-22T06:54:48.710Z,98.72
2022-11-22T06:57:16.984Z,101.82
2022-11-22T06:59:45.788Z,111.13
2022-11-22T07:02:14.366Z,86.93
2022-11-22T07:04:56.318Z,90.63
2022-11-22T07:07:30.660Z,90.55
2022-11-22T07:10:00.297Z,74.82
2022-11-22T07:12:28.314Z,102.00
2022-11-22T07:14:56.332Z,92.70
2022-11-22T07:17:25.058Z,100.88
2022-11-22T07:19:53.045Z,102.45
2022-11-22T07:22:21.731Z,113.45
2022-11-22T07:24:49.927Z,99.65
2022-11-22T07:27:19.637Z,94.88
2022-11-22T07:29:48.331Z,89.18
2022-11-22T07:32:19.724Z,99.22
2022-11-22T07:34:47.998Z,99.97
2022-11-22T07:37:15.977Z,87.65
2022-11-22T07:39:44.181Z,94.18
2022-11-22T07:42:13.078Z,87.25
2022-11-22T07:44:42.414Z,75.93
2022-11-22T07:47:12.201Z,86.28
2022-11-22T07:49:40.780Z,78.80
2022-11-22T07:52:08.738Z,86.85
2022-11-22T07:54:37.264Z,83.47
2022-11-22T07:57:05.234Z,85.70
2022-11-22T07:59:33.215Z,86.97
2022-11-22T08:02:04.212Z,78.25
2022-11-22T08:04:32.653Z,86.70
2022-11-22T08:07:03.463Z,78.20
2022-11-22T08:09:31.638Z,79.70
2022-11-22T08:11:59.917Z,89.68
2022-11-22T08:14:32.465Z,84.47
2022-11-22T08:17:01.146Z,83.72
2022-11-22T08:19:32.033Z,76.25
2022-11-22T08:22:00.746Z,86.00
2022-11-22T08:24:29.069Z,74.53
2022-11-22T08:26:57.352Z,72.30
2022-11-22T08:29:26.000Z,78.18
2022-11-22T08:31:56.845Z,76.65
2022-11-22T08:34:25.106Z,76.30
2022-11-22T08:36:57.072Z,68.95
2022-11-22T08:39:25.098Z,77.85
2022-11-22T08:41:54.001Z,78.93
2022-11-22T08:44:22.070Z,75.88
2022-11-22T08:46:54.938Z,82.50
2022-11-22T08:49:22.962Z,77.35
2022-11-22T08:51:57.369Z,78.25
2022-11-22T08:54:26.632Z,79.07
2022-11-22T08:56:54.764Z,78.50
2022-11-22T08:59:23.288Z,77.80
2022-11-22T09:01:51.337Z,74.80
2022-11-22T09:04:20.056Z,74.93
2022-11-22T09:09:39.239Z,77.88
2022-11-22T09:12:08.368Z,66.45
2022-11-22T09:14:36.383Z,71.72
2022-11-22T09:17:07.030Z,69.18
2022-11-22T09:19:35.468Z,64.50
2022-11-22T09:22:03.423Z,76.35
2022-11-22T09:24:31.451Z,66.97
2022-11-22T09:27:00.726Z,63.78
2022-11-22T09:29:29.439Z,66.28
2022-11-22T09:31:58.042Z,68.95
2022-11-22T09:34:26.002Z,78.45
2022-11-22T09:36:54.193Z,64.15
2022-11-22T09:39:22.549Z,72.43
2022-11-22T09:42:11.662Z,56.08
2022-11-22T09:44:51.272Z,62.35
2022-11-22T09:47:26.325Z,71.80
2022-11-22T09:49:59.381Z,66.13
2022-11-22T09:52:32.721Z,67.35
2022-11-22T09:55:03.594Z,67.22
2022-11-22T09:57:36.078Z,57.70
2022-11-22T10:00:07.653Z,65.25
2022-11-22T10:02:58.714Z,70.28
2022-11-22T10:05:30.984Z,66.82
2022-11-22T10:08:04.981Z,64.68
2022-11-22T10:10:36.657Z,74.85
2022-11-22T10:13:11.207Z,66.80
2022-11-22T10:15:45.859Z,83.10
2022-11-22T10:18:19.437Z,77.63
2022-11-22T10:20:49.560Z,72.35
2022-11-22T10:23:22.709Z,68.55
2022-11-22T10:26:00.098Z,76.80
2022-11-22T10:28:35.640Z,72.60
2022-11-22T10:31:09.706Z,65.65
2022-11-22T10:33:44.335Z,69.65
2022-11-22T10:36:24.645Z,78.75
2022-11-22T10:39:12.871Z,73.60
2022-11-22T10:41:48.389Z,68.15
2022-11-22T10:44:26.410Z,76.28
2022-11-22T10:47:00.514Z,81.03
2022-11-22T10:49:40.614Z,77.90
2022-11-22T10:52:17.587Z,75.03
2022-11-22T10:54:51.804Z,76.72
2022-11-22T10:57:31.944Z,78.60
2022-11-22T11:00:20.498Z,73.25
2022-11-22T11:03:20.070Z,78.75
2022-11-22T11:09:23.254Z,77.55
2022-11-22T11:11:31.397Z,72.05
2022-11-22T11:14:01.898Z,76.35
2022-11-22T11:16:33.511Z,66.93
2022-11-22T11:19:09.898Z,77.25
2022-11-22T11:21:39.797Z,72.43
2022-11-22T11:24:18.037Z,81.90
2022-11-22T11:26:55.323Z,76.68
2022-11-22T11:29:37.943Z,75.30
2022-11-22T11:32:13.382Z,79.13
2022-11-22T11:34:44.002Z,76.75
2022-11-22T11:37:23.615Z,83.45
2022-11-22T11:39:51.789Z,72.82
2022-11-22T11:42:28.968Z,76.80
2022-11-22T11:45:23.568Z,71.22
2022-11-22T11:47:52.983Z,69.65
2022-11-22T11:50:24.512Z,74.40
2022-11-22T11:52:56.229Z,74.03
2022-11-22T11:55:24.461Z,83.90
2022-11-22T11:57:53.746Z,76.15
2022-11-22T12:00:28.142Z,70.18
2022-11-22T12:03:07.314Z,73.47
2022-11-22T12:05:35.701Z,74.25
2022-11-22T12:08:29.142Z,72.63
2022-11-22T12:10:59.763Z,69.20
2022-11-22T12:13:35.275Z,63.72
2022-11-22T12:16:17.408Z,75.57
2022-11-22T12:18:51.500Z,67.22
2022-11-22T12:21:23.891Z,72.93
2022-11-22T12:24:19.567Z,66.35
2022-11-22T12:26:46.512Z,75.32
2022-11-22T12:29:16.518Z,65.28
2022-11-22T12:31:53.458Z,76.90
2022-11-22T12:34:29.358Z,72.90
2022-11-22T12:37:02.640Z,69.53
2022-11-22T12:39:30.647Z,79.22
2022-11-22T12:42:02.585Z,77.55
2022-11-22T12:44:35.784Z,71.78
2022-11-22T12:47:08.214Z,79.43
2022-11-22T12:49:41.255Z,70.07
2022-11-22T12:52:16.704Z,74.47
2022-11-22T12:54:50.260Z,76.10
2022-11-22T12:57:22.795Z,69.03
2022-11-22T12:59:58.099Z,68.85
2022-11-22T13:02:31.850Z,69.55
2022-11-22T13:05:04.548Z,73.32
2022-11-22T13:07:47.514Z,67.97
2022-11-22T13:10:22.459Z,68.93
2022-11-22T13:12:53.888Z,67.10
2022-11-22T13:15:27.905Z,86.05
2022-11-22T13:17:56.661Z,70.18
2022-11-22T13:20:28.458Z,73.55
2022-11-22T13:23:08.238Z,64.70
2022-11-22T13:25:48.966Z,71.32
2022-11-22T13:28:22.522Z,67.63
2022-11-22T13:31:15.859Z,76.50
2022-11-22T13:33:53.683Z,66.82
2022-11-22T13:36:37.707Z,64.03
2022-11-22T13:39:08.093Z,64.43
2022-11-22T13:41:39.055Z,74.82
2022-11-22T13:44:33.685Z,69.40
2022-11-22T13:47:04.385Z,66.82
2022-11-22T13:49:46.547Z,78.00
2022-11-22T13:52:45.804Z,71.38
2022-11-22T13:55:29.149Z,63.97
2022-11-22T13:58:13.181Z,72.60
2022-11-22T14:00:43.550Z,72.57
2022-11-22T14:03:36.696Z,65.65
2022-11-22T14:06:25.954Z,67.45
2022-11-22T14:09:17.690Z,71.70
2022-11-22T14:11:54.189Z,68.00
2022-11-22T14:14:33.018Z,66.18
2022-11-22T14:17:08.769Z,69.78
2022-11-22T14:19:47.483Z,62.70
2022-11-22T14:22:20.945Z,69.00
2022-11-22T14:25:14.477Z,67.93
2022-11-22T14:27:50.098Z,65.85
2022-11-22T14:30:20.851Z,67.60
2022-11-22T14:32:52.175Z,68.18
2022-11-22T14:35:29.212Z,65.93
2022-11-22T14:38:03.682Z,62.25
2022-11-22T14:40:46.565Z,60.65
2022-11-22T14:43:26.463Z,65.75
2022-11-22T14:45:56.854Z,69.13
2022-11-22T14:48:28.418Z,68.07
2022-11-22T14:51:02.207Z,64.28
2022-11-22T14:53:36.523Z,74.60
2022-11-22T14:56:08.976Z,67.10
2022-11-22T14:58:45.084Z,64.50
2022-11-22T15:01:27.269Z,73.18
2022-11-22T15:09:13.451Z,60.22
2022-11-22T15:09:21.290Z,60.17
2022-11-22T15:11:01.446Z,59.38
2022-11-22T15:13:53.585Z,61.83
2022-11-22T15:59:43.181Z,59.40
2022-11-22T16:02:14.578Z,59.00
2022-11-22T16:06:08.487Z,66.65
2022-11-22T16:07:40.218Z,59.40
2022-11-22T16:10:19.800Z,64.65
2022-11-22T16:12:48.287Z,59.72
2022-11-22T16:15:23.296Z,63.05
2022-11-22T16:17:59.209Z,67.85
2022-11-22T16:20:33.532Z,65.45
2022-11-22T16:23:19.889Z,78.40
2022-11-22T16:25:49.812Z,65.18
2022-11-22T16:28:22.954Z,64.15
2022-11-22T16:30:50.954Z,67.68
2022-11-22T16:33:20.770Z,67.22
2022-11-22T16:35:53.258Z,62.60
2022-11-22T16:38:21.846Z,72.30
2022-11-22T16:40:50.059Z,67.90
2022-11-22T16:43:21.092Z,57.53
2022-11-22T16:45:49.755Z,60.15
2022-11-22T16:48:34.821Z,64.45
2022-11-22T16:51:05.782Z,64.20
2022-11-22T16:53:41.385Z,67.28
2022-11-22T16:56:10.964Z,66.45
2022-11-22T16:58:39.270Z,69.85
2022-11-22T17:01:09.966Z,67.78
2022-11-22T17:03:40.049Z,68.55
2022-11-22T17:06:11.455Z,66.22
2022-11-22T17:08:39.517Z,72.15
2022-11-22T17:11:08.386Z,77.53
2022-11-22T17:13:36.742Z,74.63
2022-11-22T17:16:06.927Z,76.40
2022-11-22T17:18:36.394Z,69.25
2022-11-22T17:21:06.245Z,74.72
2022-11-22T17:23:40.598Z,75.25
2022-11-22T17:26:11.110Z,73.25
2022-11-22T17:28:39.374Z,73.30
2022-11-22T17:31:11.523Z,75.80
2022-11-22T17:36:19.596Z,77.13
2022-11-22T17:38:48.953Z,70.53
2022-11-22T17:41:17.467Z,75.72
2022-11-22T17:43:45.916Z,69.93
2022-11-22T17:46:15.522Z,75.22
2022-11-22T17:48:44.750Z,81.80
2022-11-22T17:51:13.782Z,71.80
2022-11-22T17:53:42.135Z,76.35
2022-11-22T17:56:12.049Z,77.60
2022-11-22T17:58:40.673Z,88.68
2022-11-22T18:01:12.168Z,80.95
2022-11-22T18:03:42.326Z,86.65
2022-11-22T18:06:12.203Z,85.35
2022-11-22T18:08:46.632Z,77.70
2022-11-22T18:11:17.565Z,81.57
2022-11-22T18:13:45.787Z,89.40
2022-11-22T18:16:15.623Z,82.80
2022-11-22T18:18:59.544Z,88.80
2022-11-22T18:21:29.633Z,99.75
2022-11-22T18:24:00.253Z,96.55
2022-11-22T18:26:45.387Z,91.72
2022-11-22T18:32:03.714Z,90.20
2022-11-22T18:34:32.629Z,89.22
2022-11-22T18:37:04.672Z,89.85
2022-11-22T18:39:37.334Z,88.97
2022-11-22T18:42:15.872Z,91.35
2022-11-22T18:44:44.188Z,87.47
2022-11-22T18:47:12.616Z,88.78
2022-11-22T18:49:41.123Z,89.57
2022-11-22T18:52:14.966Z,84.78
2022-11-22T18:54:51.802Z,94.50
2022-11-22T18:57:28.481Z,91.30
2022-11-22T18:59:56.927Z,88.40
2022-11-22T19:02:28.216Z,87.60
2022-11-22T19:04:56.763Z,91.07
2022-11-22T19:07:26.633Z,98.63
2022-11-22T19:09:59.888Z,95.65
2022-11-22T19:12:30.286Z,99.45
2022-11-22T19:14:59.384Z,96.55
2022-11-22T19:17:27.600Z,94.93
2022-11-22T19:19:59.346Z,94.00
2022-11-22T19:22:27.697Z,89.43
2022-11-22T19:24:55.769Z,94.55
2022-11-22T19:27:26.026Z,87.05
2022-11-22T19:29:55.615Z,96.95
2022-11-22T19:32:25.220Z,105.60
2022-11-22T19:34:53.344Z,95.55
2022-11-22T19:37:21.939Z,81.55
2022-11-22T19:39:51.207Z,103.95
2022-11-22T19:42:21.004Z,75.88
2022-11-22T19:44:49.633Z,105.68
2022-11-22T19:47:20.450Z,92.70
2022-11-22T19:49:48.818Z,98.25
2022-11-22T19:52:20.804Z,105.55
2022-11-22T19:54:49.098Z,90.50
2022-11-22T19:57:17.329Z,95.57
2022-11-22T19:59:45.565Z,94.45
2022-11-22T20:02:13.943Z,106.45
2022-11-22T20:04:43.785Z,111.72
2022-11-22T20:07:12.752Z,104.95
2022-11-22T20:09:40.859Z,101.47
2022-11-22T20:12:10.019Z,106.40
2022-11-22T20:14:38.085Z,104.57
2022-11-22T20:17:06.450Z,103.57
2022-11-22T20:19:35.506Z,105.50
2022-11-22T20:22:06.441Z,104.25
2022-11-22T20:24:37.160Z,99.07
2022-11-22T20:27:06.079Z,113.13
2022-11-22T20:29:34.191Z,99.10
2022-11-22T20:32:02.503Z,109.55
2022-11-22T20:34:31.035Z,100.65
2022-11-22T20:37:01.200Z,121.05
2022-11-22T20:39:33.669Z,113.43
2022-11-22T20:42:32.454Z,118.10
2022-11-22T20:44:51.569Z,105.68
2022-11-22T20:47:20.631Z,103.95
2022-11-22T20:49:50.479Z,116.22
2022-11-22T20:52:20.119Z,113.70
2022-11-22T20:54:49.453Z,112.40
2022-11-22T20:57:19.772Z,114.15
2022-11-22T20:59:48.489Z,109.45
2022-11-22T21:02:16.779Z,112.40
2022-11-22T21:04:45.135Z,105.13
2022-11-22T21:07:13.599Z,104.50
2022-11-22T21:09:42.728Z,110.18
2022-11-22T21:12:12.066Z,116.35
2022-11-22T21:14:40.068Z,102.07
2022-11-22T21:17:37.199Z,111.82
2022-11-22T21:19:56.734Z,113.82
2022-11-22T21:22:31.689Z,117.00
2022-11-22T21:25:01.252Z,123.70
2022-11-22T21:27:37.864Z,119.35
2022-11-22T21:30:11.337Z,121.13
2022-11-22T21:32:39.561Z,119.38
2022-11-22T21:35:10.792Z,136.02
2022-11-22T21:37:42.160Z,117.60
2022-11-22T21:40:12.120Z,122.22
2022-11-22T21:42:41.780Z,130.60
2022-11-22T21:45:12.035Z,122.07
2022-11-22T21:47:41.754Z,121.07
2022-11-22T21:50:12.482Z,141.32
2022-11-22T21:52:42.556Z,121.82
2022-11-22T21:55:12.049Z,125.10
2022-11-22T21:57:41.297Z,124.80
2022-11-22T22:00:11.335Z,133.52
2022-11-22T22:02:40.768Z,138.43
2022-11-22T22:05:09.496Z,124.05
2022-11-22T22:07:52.614Z,138.35
2022-11-22T22:10:22.958Z,143.25
2022-11-22T22:12:52.919Z,139.38
2022-11-22T22:15:21.691Z,131.10
2022-11-22T22:17:53.542Z,130.35
2022-11-22T22:20:21.605Z,133.15
2022-11-22T22:22:52.097Z,146.77
2022-11-22T22:25:26.300Z,137.93
2022-11-22T22:27:58.720Z,144.95
2022-11-22T22:30:27.219Z,135.45
2022-11-22T22:32:58.718Z,131.80
2022-11-22T22:35:26.855Z,140.70
2022-11-22T22:37:58.118Z,151.02
2022-11-22T22:40:27.322Z,139.40
2022-11-22T22:42:58.638Z,137.32
2022-11-22T22:45:26.610Z,132.68
2022-11-22T22:47:54.912Z,138.32
2022-11-22T22:50:23.398Z,152.80
2022-11-22T22:52:54.328Z,137.52
2022-11-22T22:55:23.141Z,152.98
2022-11-22T22:57:55.532Z,143.70
2022-11-22T23:00:25.489Z,141.43
2022-11-22T23:02:53.672Z,144.60
2022-11-22T23:05:25.189Z,158.45
2022-11-22T23:07:56.430Z,148.93
2022-11-22T23:10:26.219Z,158.17
2022-11-22T23:12:54.426Z,164.60
2022-11-22T23:15:43.804Z,157.43
2022-11-22T23:18:13.292Z,147.75
2022-11-22T23:20:41.311Z,146.45
2022-11-22T23:23:09.298Z,157.52
2022-11-22T23:25:37.307Z,147.80
2022-11-22T23:28:07.121Z,157.80
2022-11-22T23:30:36.593Z,146.10
2022-11-22T23:33:04.935Z,144.55
2022-11-22T23:35:36.689Z,152.10
2022-11-22T23:38:04.839Z,158.82
2022-11-22T23:40:32.849Z,166.85
2022-11-22T23:43:03.669Z,160.38
2022-11-22T23:45:31.646Z,148.00
2022-11-22T23:48:00.340Z,164.95
2022-11-22T23:50:31.772Z,149.20
2022-11-22T23:53:04.172Z,144.00
2022-11-22T23:55:32.752Z,139.93
2022-11-22T23:58:01.278Z,140.70
